Time;durP1;ratioP1;P1;durP2;ratioP2;P2;SDS_P1;SDS_P2;PMS_P1;PMS_P2;Temp;Humidity;BMP_temperature;BMP_pressure;BME280_temperature;BME280_humidity;BME280_pressure;Samples;Min_cycle;Max_cycle;Signal;HPM_P1;HPM_P2
2023/05/20 00:02:12;;;;;;;6.18;1.90;;;;;;;;;;5068726;28;20044;-69
2023/05/20 00:04:42;;;;;;;6.20;2.10;;;;;;;;;;5056325;28;20063;-69
2023/05/20 00:07:09;;;;;;;7.53;2.15;;;;;;;;;;5065343;28;20048;-69
2023/05/20 00:09:38;;;;;;;6.50;2.03;;;;;;;;;;5071477;28;20408;-69
2023/05/20 00:12:06;;;;;;;4.75;2.10;;;;;;;;;;5060359;28;20049;-69
2023/05/20 00:14:33;;;;;;;5.95;1.60;;;;;;;;;;5065703;28;20044;-69
2023/05/20 00:17:01;;;;;;;6.00;2.20;;;;;;;;;;5069886;28;20061;-69
2023/05/20 00:19:28;;;;;;;5.32;1.70;;;;;;;;;;5067302;28;20049;-69
2023/05/20 00:21:57;;;;;;;7.25;2.38;;;;;;;;;;5069062;28;20051;-69
2023/05/20 00:24:24;;;;;;;3.88;1.88;;;;;;;;;;5072278;28;20080;-69
2023/05/20 00:26:51;;;;;;;4.18;1.85;;;;;;;;;;5069810;28;20052;-69
2023/05/20 00:29:18;;;;;;;4.30;1.70;;;;;;;;;;5070180;28;20104;-69
2023/05/20 00:31:46;;;;;;;5.57;2.05;;;;;;;;;;5070088;28;20044;-69
2023/05/20 00:34:13;;;;;;;5.20;2.00;;;;;;;;;;5068524;28;20048;-69
2023/05/20 00:36:41;;;;;;;7.15;2.30;;;;;;;;;;5069286;28;20068;-69
2023/05/20 00:39:10;;;;;;;6.63;2.38;;;;;;;;;;5068894;28;20083;-69
2023/05/20 00:41:37;;;;;;;7.30;2.00;;;;;;;;;;5067930;28;20045;-69
2023/05/20 00:44:05;;;;;;;6.38;2.08;;;;;;;;;;5069337;28;20447;-69
2023/05/20 00:46:32;;;;;;;6.15;2.05;;;;;;;;;;5067717;28;20057;-69
2023/05/20 00:48:59;;;;;;;6.30;2.17;;;;;;;;;;5064396;28;20051;-69
2023/05/20 00:51:27;;;;;;;5.05;2.13;;;;;;;;;;5060021;28;20127;-69
2023/05/20 00:53:54;;;;;;;6.47;2.35;;;;;;;;;;5066929;28;20052;-69
2023/05/20 00:56:23;;;;;;;6.63;2.22;;;;;;;;;;5067262;28;20045;-69
2023/05/20 00:58:51;;;;;;;8.88;2.40;;;;;;;;;;5070379;28;20044;-69
2023/05/20 01:01:18;;;;;;;3.83;2.10;;;;;;;;;;5062635;28;20040;-69
2023/05/20 01:03:45;;;;;;;5.32;2.03;;;;;;;;;;5069376;28;20415;-69
2023/05/20 01:06:13;;;;;;;7.63;2.40;;;;;;;;;;5067616;28;20107;-69
2023/05/20 01:08:40;;;;;;;4.30;2.10;;;;;;;;;;5067557;28;20059;-69
2023/05/20 01:11:09;;;;;;;5.78;2.10;;;;;;;;;;5064119;28;20452;-69
2023/05/20 01:13:43;;;;;;;5.53;2.20;;;;;;;;;;5069017;28;20053;-69
2023/05/20 01:16:11;;;;;;;6.78;2.38;;;;;;;;;;5068457;28;20495;-69
2023/05/20 01:18:39;;;;;;;7.97;2.40;;;;;;;;;;5069458;28;20052;-69
2023/05/20 01:21:08;;;;;;;11.20;2.50;;;;;;;;;;5066599;28;20040;-69
2023/05/20 01:23:40;;;;;;;7.15;2.70;;;;;;;;;;5066282;28;20069;-69
2023/05/20 01:26:07;;;;;;;6.65;2.35;;;;;;;;;;5064678;28;20392;-69
2023/05/20 01:28:37;;;;;;;6.05;2.33;;;;;;;;;;5063625;28;20454;-69
2023/05/20 01:31:06;;;;;;;9.00;2.58;;;;;;;;;;5066353;28;20099;-69
2023/05/20 01:33:36;;;;;;;5.85;2.55;;;;;;;;;;5067694;28;20495;-69
2023/05/20 01:36:03;;;;;;;6.60;2.47;;;;;;;;;;5054861;28;20056;-69
2023/05/20 01:38:31;;;;;;;5.80;2.72;;;;;;;;;;5062102;28;20444;-69
2023/05/20 01:41:00;;;;;;;6.60;2.50;;;;;;;;;;5067433;28;20048;-69
2023/05/20 01:43:27;;;;;;;7.00;2.80;;;;;;;;;;5062522;28;20047;-69
2023/05/20 01:45:55;;;;;;;6.47;2.63;;;;;;;;;;5066943;28;20048;-69
2023/05/20 01:48:22;;;;;;;6.38;2.83;;;;;;;;;;5067534;28;20096;-69
2023/05/20 01:50:49;;;;;;;10.77;2.60;;;;;;;;;;5066178;28;20569;-69
2023/05/20 01:53:16;;;;;;;8.38;2.58;;;;;;;;;;5068813;28;20052;-69
2023/05/20 01:55:44;;;;;;;4.10;2.13;;;;;;;;;;5065829;28;20060;-69
2023/05/20 01:58:12;;;;;;;5.18;2.60;;;;;;;;;;5069020;28;20041;-69
2023/05/20 02:00:40;;;;;;;8.23;2.67;;;;;;;;;;5063286;28;20547;-69
2023/05/20 02:03:07;;;;;;;8.05;2.83;;;;;;;;;;5065464;28;20044;-69
2023/05/20 02:05:34;;;;;;;4.45;2.38;;;;;;;;;;5068201;28;20059;-69
2023/05/20 02:08:01;;;;;;;6.97;2.50;;;;;;;;;;5068083;28;20052;-69
2023/05/20 02:10:28;;;;;;;9.27;2.92;;;;;;;;;;5069809;28;20049;-69
2023/05/20 02:12:56;;;;;;;6.68;2.85;;;;;;;;;;5065602;28;20061;-69
2023/05/20 02:15:24;;;;;;;8.18;2.67;;;;;;;;;;5065135;28;20048;-69
2023/05/20 02:17:51;;;;;;;8.90;2.78;;;;;;;;;;5066584;28;20086;-69
2023/05/20 02:20:19;;;;;;;7.10;3.05;;;;;;;;;;5064085;28;20052;-69
2023/05/20 02:22:46;;;;;;;9.40;2.58;;;;;;;;;;5067255;28;20056;-69
2023/05/20 02:25:13;;;;;;;7.38;2.65;;;;;;;;;;5065336;28;20136;-69
2023/05/20 02:27:41;;;;;;;7.00;2.55;;;;;;;;;;5065308;28;20044;-69
2023/05/20 02:30:09;;;;;;;4.85;2.58;;;;;;;;;;5064762;28;20058;-69
2023/05/20 02:32:37;;;;;;;6.07;2.70;;;;;;;;;;5063106;28;20053;-69
2023/05/20 02:35:05;;;;;;;7.63;2.97;;;;;;;;;;5063344;28;20052;-69
2023/05/20 02:37:33;;;;;;;5.07;2.53;;;;;;;;;;5069572;28;20040;-69
2023/05/20 02:40:00;;;;;;;8.43;3.05;;;;;;;;;;5072001;28;20048;-69
2023/05/20 02:42:27;;;;;;;8.85;2.60;;;;;;;;;;5070212;28;20427;-69
2023/05/20 02:44:57;;;;;;;7.07;3.03;;;;;;;;;;5068063;28;20041;-69
2023/05/20 02:47:24;;;;;;;7.55;3.47;;;;;;;;;;5070239;28;20049;-69
2023/05/20 02:49:53;;;;;;;7.05;2.55;;;;;;;;;;5072735;28;20106;-68
2023/05/20 02:52:20;;;;;;;8.70;3.20;;;;;;;;;;5069941;28;20061;-69
2023/05/20 02:54:48;;;;;;;6.88;2.83;;;;;;;;;;5065826;28;20154;-69
2023/05/20 02:57:15;;;;;;;7.03;2.97;;;;;;;;;;5071143;28;20041;-69
2023/05/20 02:59:42;;;;;;;7.80;3.33;;;;;;;;;;5069785;28;20049;-69
2023/05/20 03:02:09;;;;;;;5.57;2.92;;;;;;;;;;5070402;28;20399;-69
2023/05/20 03:04:37;;;;;;;7.05;3.00;;;;;;;;;;5070739;28;20053;-69
2023/05/20 03:07:07;;;;;;;10.30;3.47;;;;;;;;;;5070689;28;20206;-68
2023/05/20 03:09:34;;;;;;;6.55;3.03;;;;;;;;;;5073113;28;20757;-69
2023/05/20 03:12:02;;;;;;;7.88;3.05;;;;;;;;;;5069199;28;20044;-69
2023/05/20 03:14:29;;;;;;;5.78;3.00;;;;;;;;;;5065278;28;20041;-69
2023/05/20 03:16:56;;;;;;;9.18;3.40;;;;;;;;;;5070165;28;20051;-69
2023/05/20 03:19:24;;;;;;;5.72;3.08;;;;;;;;;;5069564;28;20057;-69
2023/05/20 03:21:51;;;;;;;7.88;3.45;;;;;;;;;;5069521;28;20049;-69
2023/05/20 03:24:22;;;;;;;5.47;3.00;;;;;;;;;;5070561;28;20055;-69
2023/05/20 03:26:49;;;;;;;6.90;3.13;;;;;;;;;;5069686;28;20055;-69
2023/05/20 03:29:17;;;;;;;7.65;3.22;;;;;;;;;;5071684;28;20135;-70
2023/05/20 03:31:45;;;;;;;5.00;2.72;;;;;;;;;;5070591;28;20048;-69
2023/05/20 03:34:12;;;;;;;6.45;3.13;;;;;;;;;;5071235;28;20491;-69
2023/05/20 03:36:40;;;;;;;6.47;3.25;;;;;;;;;;5065664;28;20571;-69
2023/05/20 03:39:07;;;;;;;8.57;2.75;;;;;;;;;;5068235;28;20059;-69
2023/05/20 03:41:36;;;;;;;9.35;3.05;;;;;;;;;;5070261;28;20126;-69
2023/05/20 03:44:04;;;;;;;4.88;2.97;;;;;;;;;;5069748;28;20060;-69
2023/05/20 03:46:33;;;;;;;6.65;2.90;;;;;;;;;;5069617;28;20076;-69
2023/05/20 03:49:01;;;;;;;7.00;2.70;;;;;;;;;;5069798;28;20488;-69
2023/05/20 03:51:28;;;;;;;11.35;2.70;;;;;;;;;;5067380;28;20076;-69
2023/05/20 03:53:56;;;;;;;4.60;2.50;;;;;;;;;;5065900;28;20047;-69
2023/05/20 03:56:23;;;;;;;6.53;2.70;;;;;;;;;;5074128;28;20045;-69
2023/05/20 03:58:52;;;;;;;7.65;2.50;;;;;;;;;;5068492;28;20062;-69
2023/05/20 04:01:20;;;;;;;6.65;2.75;;;;;;;;;;5070454;28;20072;-69
2023/05/20 04:03:47;;;;;;;6.32;2.22;;;;;;;;;;5068153;28;20064;-69
2023/05/20 04:06:15;;;;;;;6.90;2.63;;;;;;;;;;5068665;28;20057;-69
2023/05/20 04:08:42;;;;;;;4.30;2.40;;;;;;;;;;5069267;28;20059;-69
2023/05/20 04:11:10;;;;;;;3.95;2.40;;;;;;;;;;5064573;28;20098;-69
2023/05/20 04:13:37;;;;;;;6.60;2.40;;;;;;;;;;5065017;28;20056;-69
2023/05/20 04:16:06;;;;;;;5.07;2.20;;;;;;;;;;5069087;28;20049;-69
2023/05/20 04:18:37;;;;;;;4.38;2.15;;;;;;;;;;5068909;28;20097;-69
2023/05/20 04:21:05;;;;;;;5.40;2.40;;;;;;;;;;5069046;28;20056;-69
2023/05/20 04:23:32;;;;;;;3.83;1.95;;;;;;;;;;5067847;28;20051;-69
2023/05/20 04:26:01;;;;;;;4.25;2.17;;;;;;;;;;5070722;28;20071;-69
2023/05/20 04:28:30;;;;;;;4.05;2.33;;;;;;;;;;5067420;28;20044;-69
2023/05/20 04:31:01;;;;;;;6.47;2.17;;;;;;;;;;5069881;28;20053;-69
2023/05/20 04:33:30;;;;;;;7.18;2.45;;;;;;;;;;5068498;28;20052;-69
2023/05/20 04:35:57;;;;;;;4.20;2.22;;;;;;;;;;5066638;28;20052;-69
2023/05/20 04:38:28;;;;;;;5.07;2.58;;;;;;;;;;5064312;28;20491;-69
2023/05/20 04:40:57;;;;;;;5.57;2.22;;;;;;;;;;5067598;28;20123;-69
2023/05/20 04:43:24;;;;;;;4.43;1.90;;;;;;;;;;5069718;28;20664;-69
2023/05/20 04:45:53;;;;;;;7.93;2.05;;;;;;;;;;5068536;28;20056;-69
2023/05/20 04:48:21;;;;;;;2.95;1.70;;;;;;;;;;5069554;28;20090;-69
2023/05/20 04:50:50;;;;;;;4.00;2.20;;;;;;;;;;5065992;28;20057;-69
2023/05/20 04:53:18;;;;;;;5.03;2.00;;;;;;;;;;5063956;28;20041;-69
2023/05/20 04:55:46;;;;;;;3.92;2.25;;;;;;;;;;5069989;28;20055;-69
2023/05/20 04:58:16;;;;;;;7.95;2.35;;;;;;;;;;5069370;28;20048;-69
2023/05/20 05:00:43;;;;;;;3.70;2.20;;;;;;;;;;5058253;28;20071;-69
2023/05/20 05:03:11;;;;;;;5.55;2.00;;;;;;;;;;5068715;28;20135;-69
2023/05/20 05:05:39;;;;;;;6.18;2.03;;;;;;;;;;5065540;28;20569;-69
2023/05/20 05:08:08;;;;;;;4.32;1.67;;;;;;;;;;5068232;28;20061;-69
2023/05/20 05:10:36;;;;;;;6.38;2.08;;;;;;;;;;5067776;28;20045;-69
2023/05/20 05:13:03;;;;;;;4.00;1.90;;;;;;;;;;5068692;28;20044;-69
2023/05/20 05:15:30;;;;;;;4.32;1.80;;;;;;;;;;5065991;28;20044;-69
2023/05/20 05:17:58;;;;;;;5.25;1.65;;;;;;;;;;5064378;28;20126;-69
2023/05/20 05:20:25;;;;;;;3.08;1.42;;;;;;;;;;5060672;28;20052;-69
2023/05/20 05:22:52;;;;;;;4.03;1.40;;;;;;;;;;5064965;28;20047;-69
2023/05/20 05:25:21;;;;;;;3.03;1.48;;;;;;;;;;5063781;28;20055;-69
2023/05/20 05:27:49;;;;;;;5.05;1.58;;;;;;;;;;5067713;28;20048;-69
2023/05/20 05:30:17;;;;;;;4.07;1.30;;;;;;;;;;5065078;28;20060;-69
2023/05/20 05:32:44;;;;;;;1.52;0.98;;;;;;;;;;5064461;28;20051;-69
2023/05/20 05:35:11;;;;;;;1.90;1.10;;;;;;;;;;5063575;28;20124;-69
2023/05/20 05:37:39;;;;;;;4.72;1.30;;;;;;;;;;5064038;28;20059;-69
2023/05/20 05:40:07;;;;;;;1.63;1.05;;;;;;;;;;5060148;28;20048;-69
2023/05/20 05:42:36;;;;;;;1.45;0.90;;;;;;;;;;5062067;28;20155;-69
2023/05/20 05:45:03;;;;;;;5.40;0.80;;;;;;;;;;5064272;28;20055;-69
2023/05/20 05:47:31;;;;;;;1.60;0.85;;;;;;;;;;5065965;28;20057;-69
2023/05/20 05:49:58;;;;;;;3.20;1.20;;;;;;;;;;5067549;28;20338;-69
2023/05/20 05:52:26;;;;;;;1.77;0.90;;;;;;;;;;5068069;28;20114;-69
2023/05/20 05:54:53;;;;;;;2.47;1.15;;;;;;;;;;5070218;28;20531;-69
2023/05/20 05:57:20;;;;;;;2.45;0.90;;;;;;;;;;5068385;28;20056;-69
2023/05/20 05:59:49;;;;;;;2.15;1.00;;;;;;;;;;5062423;28;20052;-69
2023/05/20 06:02:16;;;;;;;1.75;0.80;;;;;;;;;;5063654;28;20052;-69
2023/05/20 06:04:43;;;;;;;1.08;0.55;;;;;;;;;;5067599;28;20052;-69
2023/05/20 06:07:10;;;;;;;1.95;0.90;;;;;;;;;;5068391;28;20491;-69
2023/05/20 06:09:38;;;;;;;1.25;0.77;;;;;;;;;;5069173;28;20051;-69
2023/05/20 06:12:06;;;;;;;1.27;0.80;;;;;;;;;;5066469;28;20531;-69
2023/05/20 06:14:33;;;;;;;1.10;0.70;;;;;;;;;;5073411;28;20507;-69
2023/05/20 06:17:02;;;;;;;3.05;0.80;;;;;;;;;;5070317;28;20048;-69
2023/05/20 06:19:29;;;;;;;2.22;0.88;;;;;;;;;;5072306;28;20048;-69
2023/05/20 06:21:57;;;;;;;2.08;0.70;;;;;;;;;;5070728;28;20063;-69
2023/05/20 06:24:24;;;;;;;1.10;0.63;;;;;;;;;;5068210;28;20102;-69
2023/05/20 06:26:52;;;;;;;1.55;0.80;;;;;;;;;;5071292;28;20508;-69
2023/05/20 06:29:19;;;;;;;1.08;0.68;;;;;;;;;;5069644;28;20712;-69
2023/05/20 06:31:47;;;;;;;2.33;1.00;;;;;;;;;;5068792;28;20056;-69
2023/05/20 06:34:15;;;;;;;1.58;0.68;;;;;;;;;;5067481;28;20040;-69
2023/05/20 06:36:42;;;;;;;4.00;0.80;;;;;;;;;;5071516;28;20041;-69
2023/05/20 06:39:11;;;;;;;1.13;0.70;;;;;;;;;;5069981;28;20488;-69
2023/05/20 06:41:38;;;;;;;1.63;0.70;;;;;;;;;;5073168;28;20480;-69
2023/05/20 06:44:06;;;;;;;2.63;0.63;;;;;;;;;;5068883;28;20087;-69
2023/05/20 06:46:33;;;;;;;1.30;0.70;;;;;;;;;;5068010;28;20094;-69
2023/05/20 06:49:01;;;;;;;1.20;0.60;;;;;;;;;;5069634;28;20483;-69
2023/05/20 06:51:29;;;;;;;2.00;0.63;;;;;;;;;;5071948;28;20051;-69
2023/05/20 06:53:57;;;;;;;1.10;0.60;;;;;;;;;;5066070;28;20492;-69
2023/05/20 06:56:24;;;;;;;2.05;0.80;;;;;;;;;;5069975;28;20045;-69
2023/05/20 06:58:51;;;;;;;3.00;0.75;;;;;;;;;;5064924;28;20084;-69
2023/05/20 07:01:18;;;;;;;0.88;0.60;;;;;;;;;;5071548;28;20492;-69
2023/05/20 07:03:46;;;;;;;1.70;0.60;;;;;;;;;;5068231;28;20060;-69
2023/05/20 07:06:13;;;;;;;3.13;0.70;;;;;;;;;;5067881;28;20136;-69
2023/05/20 07:08:42;;;;;;;3.22;0.68;;;;;;;;;;5070395;28;20067;-69
2023/05/20 07:11:09;;;;;;;2.35;0.70;;;;;;;;;;5069044;28;20041;-69
2023/05/20 07:13:36;;;;;;;2.28;0.77;;;;;;;;;;5070085;28;20056;-69
2023/05/20 07:16:03;;;;;;;6.65;0.82;;;;;;;;;;5070587;28;20041;-69
2023/05/20 07:18:31;;;;;;;1.63;0.70;;;;;;;;;;5068997;28;20049;-69
2023/05/20 07:20:58;;;;;;;2.78;0.82;;;;;;;;;;5069608;28;20056;-69
2023/05/20 07:23:25;;;;;;;4.80;0.70;;;;;;;;;;5070589;28;20055;-69
2023/05/20 07:25:55;;;;;;;2.30;0.70;;;;;;;;;;5069631;28;20408;-69
2023/05/20 07:28:22;;;;;;;2.22;0.82;;;;;;;;;;5067445;28;20044;-69
2023/05/20 07:30:49;;;;;;;1.45;0.60;;;;;;;;;;5068701;28;20060;-69
2023/05/20 07:33:17;;;;;;;2.10;0.90;;;;;;;;;;5067776;28;20047;-69
2023/05/20 07:35:44;;;;;;;2.58;0.60;;;;;;;;;;5066233;28;20568;-69
2023/05/20 07:38:12;;;;;;;0.90;0.60;;;;;;;;;;5069720;28;20059;-69
2023/05/20 07:40:40;;;;;;;1.23;0.68;;;;;;;;;;5069325;28;20487;-69
2023/05/20 07:43:09;;;;;;;1.98;0.80;;;;;;;;;;5068487;28;20480;-69
2023/05/20 07:45:36;;;;;;;2.42;0.68;;;;;;;;;;5069318;28;20492;-69
2023/05/20 07:48:04;;;;;;;1.48;0.60;;;;;;;;;;5070294;28;20044;-69
2023/05/20 07:50:31;;;;;;;1.00;0.60;;;;;;;;;;5085126;28;20128;-70
2023/05/20 07:53:01;;;;;;;1.63;0.60;;;;;;;;;;5069726;28;20091;-70
2023/05/20 07:55:29;;;;;;;3.50;0.70;;;;;;;;;;5068806;28;20418;-69
2023/05/20 07:57:56;;;;;;;3.22;0.85;;;;;;;;;;5071334;28;20310;-69
2023/05/20 08:00:26;;;;;;;0.77;0.55;;;;;;;;;;5068428;28;20072;-69
2023/05/20 08:02:53;;;;;;;2.00;1.00;;;;;;;;;;5070207;28;20044;-69
2023/05/20 08:05:21;;;;;;;2.22;0.70;;;;;;;;;;5067461;28;20044;-69
2023/05/20 08:07:48;;;;;;;1.27;0.70;;;;;;;;;;5070193;28;20500;-69
2023/05/20 08:10:15;;;;;;;2.92;0.80;;;;;;;;;;5070543;28;20135;-69
2023/05/20 08:12:43;;;;;;;1.95;0.70;;;;;;;;;;5068316;28;20060;-69
2023/05/20 08:15:10;;;;;;;1.85;0.50;;;;;;;;;;5070002;28;20093;-69
2023/05/20 08:17:39;;;;;;;1.13;0.45;;;;;;;;;;5068879;28;20140;-69
2023/05/20 08:20:08;;;;;;;4.05;0.73;;;;;;;;;;5067026;28;20044;-69
2023/05/20 08:22:36;;;;;;;2.83;0.88;;;;;;;;;;5069836;28;20045;-69
2023/05/20 08:25:03;;;;;;;3.15;0.90;;;;;;;;;;5066363;28;20131;-69
2023/05/20 08:27:32;;;;;;;3.38;0.70;;;;;;;;;;5070020;28;20476;-69
2023/05/20 08:29:59;;;;;;;2.63;0.80;;;;;;;;;;5065424;28;20444;-70
2023/05/20 08:32:26;;;;;;;1.67;0.70;;;;;;;;;;5068431;28;20056;-70
2023/05/20 08:34:55;;;;;;;1.58;0.70;;;;;;;;;;5064759;28;20051;-69
2023/05/20 08:37:22;;;;;;;2.72;0.95;;;;;;;;;;5065602;28;20056;-69
2023/05/20 08:39:50;;;;;;;1.73;0.60;;;;;;;;;;5069370;28;20487;-69
2023/05/20 08:42:20;;;;;;;1.63;0.60;;;;;;;;;;5074487;28;20545;-70
2023/05/20 08:44:48;;;;;;;1.30;0.60;;;;;;;;;;5068924;28;20066;-70
2023/05/20 08:47:15;;;;;;;1.63;0.60;;;;;;;;;;5069315;28;20426;-69
2023/05/20 08:49:42;;;;;;;1.20;0.50;;;;;;;;;;5067891;28;20059;-69
2023/05/20 08:52:12;;;;;;;1.90;0.70;;;;;;;;;;5066645;28;20411;-69
2023/05/20 08:54:44;;;;;;;1.67;0.63;;;;;;;;;;5068225;28;20079;-70
2023/05/20 08:57:12;;;;;;;1.63;0.70;;;;;;;;;;5063573;28;20512;-69
2023/05/20 08:59:40;;;;;;;1.83;0.80;;;;;;;;;;5062531;28;20044;-69
2023/05/20 09:02:09;;;;;;;1.67;0.70;;;;;;;;;;5068426;28;20052;-69
2023/05/20 09:04:36;;;;;;;0.77;0.50;;;;;;;;;;5066707;28;20076;-70
2023/05/20 09:07:04;;;;;;;2.53;0.70;;;;;;;;;;5069230;28;20040;-69
2023/05/20 09:09:33;;;;;;;3.58;0.80;;;;;;;;;;5070094;28;20123;-70
2023/05/20 09:12:01;;;;;;;2.97;0.60;;;;;;;;;;5068104;28;20056;-69
2023/05/20 09:14:29;;;;;;;3.60;0.82;;;;;;;;;;5069145;28;20442;-70
2023/05/20 09:16:56;;;;;;;3.47;0.90;;;;;;;;;;5068580;28;20047;-69
2023/05/20 09:19:23;;;;;;;1.35;0.60;;;;;;;;;;5064144;28;20044;-69
2023/05/20 09:21:54;;;;;;;3.80;0.93;;;;;;;;;;5068021;28;20040;-70
2023/05/20 09:24:24;;;;;;;3.72;1.17;;;;;;;;;;5070208;28;20455;-69
2023/05/20 09:26:52;;;;;;;2.85;1.05;;;;;;;;;;5067668;28;20079;-69
2023/05/20 09:29:20;;;;;;;1.23;0.70;;;;;;;;;;5069114;28;20056;-70
2023/05/20 09:31:48;;;;;;;3.42;0.90;;;;;;;;;;5065517;28;20136;-70
2023/05/20 09:34:15;;;;;;;1.80;0.73;;;;;;;;;;5067086;28;20076;-70
2023/05/20 09:36:43;;;;;;;5.03;0.95;;;;;;;;;;5067059;28;20056;-70
2023/05/20 09:39:13;;;;;;;2.00;0.93;;;;;;;;;;5067271;28;20093;-70
2023/05/20 09:41:47;;;;;;;4.65;0.90;;;;;;;;;;5072554;28;20062;-69
2023/05/20 09:44:16;;;;;;;2.47;0.80;;;;;;;;;;5064461;28;20048;-69
2023/05/20 09:46:44;;;;;;;2.97;0.90;;;;;;;;;;5066281;28;20523;-70
2023/05/20 09:49:12;;;;;;;2.92;0.80;;;;;;;;;;5072802;28;20388;-70
2023/05/20 09:51:39;;;;;;;3.88;1.25;;;;;;;;;;5071203;28;20411;-69
2023/05/20 09:54:07;;;;;;;4.28;1.00;;;;;;;;;;5072928;28;20052;-70
2023/05/20 09:56:35;;;;;;;2.25;0.77;;;;;;;;;;5071440;28;20049;-70
2023/05/20 09:59:03;;;;;;;3.22;1.00;;;;;;;;;;5071143;28;20091;-70
2023/05/20 10:01:31;;;;;;;3.47;0.73;;;;;;;;;;5073423;28;20499;-70
2023/05/20 10:04:00;;;;;;;1.85;0.82;;;;;;;;;;5071728;28;20050;-70
2023/05/20 10:06:42;;;;;;;2.88;0.95;;;;;;;;;;5069579;28;20052;-69
2023/05/20 10:09:18;;;;;;;2.55;0.80;;;;;;;;;;5072111;28;20052;-70
2023/05/20 10:11:49;;;;;;;3.00;0.85;;;;;;;;;;5068869;28;20052;-70
2023/05/20 10:14:24;;;;;;;3.78;1.00;;;;;;;;;;5073214;28;20040;-70
2023/05/20 10:16:55;;;;;;;2.17;1.02;;;;;;;;;;5069773;28;20067;-70
2023/05/20 10:19:30;;;;;;;4.30;1.10;;;;;;;;;;5073195;28;20385;-70
2023/05/20 10:21:58;;;;;;;2.85;0.90;;;;;;;;;;5068676;28;20127;-70
2023/05/20 10:24:30;;;;;;;3.47;0.90;;;;;;;;;;5072672;28;20044;-70
2023/05/20 10:26:58;;;;;;;3.53;1.02;;;;;;;;;;5071265;28;20044;-70
2023/05/20 10:29:26;;;;;;;2.38;1.00;;;;;;;;;;5071436;28;20052;-70
2023/05/20 10:31:54;;;;;;;4.18;1.05;;;;;;;;;;5072501;28;20049;-70
2023/05/20 10:34:22;;;;;;;2.75;0.98;;;;;;;;;;5070057;28;20103;-70
2023/05/20 10:36:58;;;;;;;2.50;1.15;;;;;;;;;;5071192;28;20056;-70
2023/05/20 10:39:29;;;;;;;3.83;0.80;;;;;;;;;;5071600;28;20045;-70
2023/05/20 10:42:06;;;;;;;3.75;1.02;;;;;;;;;;5071746;28;20049;-70
2023/05/20 10:44:41;;;;;;;2.35;1.05;;;;;;;;;;5068719;28;20044;-70
2023/05/20 10:47:10;;;;;;;4.53;1.17;;;;;;;;;;5068427;28;20102;-70
2023/05/20 10:49:40;;;;;;;2.83;0.90;;;;;;;;;;5069944;28;20098;-70
2023/05/20 10:52:08;;;;;;;4.75;0.93;;;;;;;;;;5071329;28;20044;-70
2023/05/20 10:54:37;;;;;;;2.38;1.10;;;;;;;;;;5068239;28;20056;-70
2023/05/20 10:57:08;;;;;;;3.50;1.05;;;;;;;;;;5068964;28;20101;-71
2023/05/20 10:59:35;;;;;;;3.10;1.05;;;;;;;;;;5068237;28;20104;-70
2023/05/20 11:02:02;;;;;;;3.83;1.00;;;;;;;;;;5070135;28;20067;-70
2023/05/20 11:04:31;;;;;;;1.58;0.90;;;;;;;;;;5067534;28;20458;-70
2023/05/20 11:06:58;;;;;;;5.38;1.23;;;;;;;;;;5063024;28;20064;-70
2023/05/20 11:09:26;;;;;;;3.15;1.30;;;;;;;;;;5074440;28;20052;-71
2023/05/20 11:11:54;;;;;;;3.47;1.10;;;;;;;;;;5070214;28;21284;-70
2023/05/20 11:14:22;;;;;;;2.92;1.08;;;;;;;;;;5068278;28;20438;-70
2023/05/20 11:16:53;;;;;;;3.67;1.10;;;;;;;;;;5070513;28;20561;-70
2023/05/20 11:19:20;;;;;;;3.00;1.15;;;;;;;;;;5066842;28;20103;-70
2023/05/20 11:21:50;;;;;;;2.42;0.90;;;;;;;;;;5071383;28;20056;-71
2023/05/20 11:24:25;;;;;;;4.20;1.30;;;;;;;;;;5066301;28;20076;-70
2023/05/20 11:26:52;;;;;;;2.33;1.10;;;;;;;;;;5064460;28;20080;-70
2023/05/20 11:29:21;;;;;;;2.85;1.20;;;;;;;;;;5067719;28;20449;-71
2023/05/20 11:31:49;;;;;;;2.78;1.10;;;;;;;;;;5069416;28;20512;-70
2023/05/20 11:34:17;;;;;;;3.88;1.30;;;;;;;;;;5066750;28;20130;-70
2023/05/20 11:36:44;;;;;;;4.47;1.30;;;;;;;;;;5067993;28;20066;-71
2023/05/20 11:39:13;;;;;;;2.83;1.10;;;;;;;;;;5067250;28;20051;-70
2023/05/20 11:41:42;;;;;;;3.83;1.35;;;;;;;;;;5063722;28;20044;-71
2023/05/20 11:44:11;;;;;;;4.47;1.23;;;;;;;;;;5065930;28;20414;-71
2023/05/20 11:46:42;;;;;;;3.08;1.35;;;;;;;;;;5084766;28;20052;-70
2023/05/20 11:49:09;;;;;;;3.45;1.15;;;;;;;;;;5067908;28;20507;-71
2023/05/20 11:51:38;;;;;;;3.92;1.42;;;;;;;;;;5069669;28;20470;-71
2023/05/20 11:54:06;;;;;;;4.30;1.35;;;;;;;;;;5065655;28;20048;-71
2023/05/20 11:56:36;;;;;;;2.08;1.00;;;;;;;;;;5068129;28;20128;-71
2023/05/20 11:59:04;;;;;;;2.72;1.30;;;;;;;;;;5068230;28;20134;-71
2023/05/20 12:01:36;;;;;;;3.20;1.15;;;;;;;;;;5070711;28;20041;-71
2023/05/20 12:04:04;;;;;;;10.38;1.52;;;;;;;;;;5068038;28;20045;-71
2023/05/20 12:06:31;;;;;;;4.20;1.52;;;;;;;;;;5070965;28;20044;-71
2023/05/20 12:08:59;;;;;;;3.75;1.20;;;;;;;;;;5068110;28;20048;-71
2023/05/20 12:11:27;;;;;;;2.47;1.20;;;;;;;;;;5068331;28;20110;-71
2023/05/20 12:13:55;;;;;;;3.28;1.35;;;;;;;;;;5068344;28;20060;-71
2023/05/20 12:16:22;;;;;;;3.55;1.13;;;;;;;;;;5068360;28;20050;-71
2023/05/20 12:18:50;;;;;;;2.55;1.27;;;;;;;;;;5069866;28;20099;-71
2023/05/20 12:21:17;;;;;;;4.80;1.30;;;;;;;;;;5069766;28;20131;-71
2023/05/20 12:23:44;;;;;;;4.03;1.38;;;;;;;;;;5067634;28;20056;-71
2023/05/20 12:26:11;;;;;;;2.90;1.52;;;;;;;;;;5067838;28;20048;-71
2023/05/20 12:28:39;;;;;;;8.05;1.50;;;;;;;;;;5068645;28;20052;-71
2023/05/20 12:31:07;;;;;;;3.80;1.70;;;;;;;;;;5068295;28;20044;-71
2023/05/20 12:33:35;;;;;;;3.35;1.40;;;;;;;;;;5069777;28;20059;-71
2023/05/20 12:36:02;;;;;;;2.03;1.20;;;;;;;;;;5064562;28;20575;-71
2023/05/20 12:38:29;;;;;;;3.60;1.42;;;;;;;;;;5066771;28;20044;-71
2023/05/20 12:40:56;;;;;;;1.98;1.33;;;;;;;;;;5069175;28;20510;-71
2023/05/20 12:43:24;;;;;;;3.90;1.40;;;;;;;;;;5068687;28;20048;-71
2023/05/20 12:45:52;;;;;;;3.40;1.60;;;;;;;;;;5067129;28;20141;-71
2023/05/20 12:48:20;;;;;;;4.28;1.50;;;;;;;;;;5068273;28;20101;-71
2023/05/20 12:50:47;;;;;;;2.90;1.55;;;;;;;;;;5067900;28;20044;-71
2023/05/20 12:53:15;;;;;;;4.05;1.40;;;;;;;;;;5068203;28;20071;-71
2023/05/20 12:55:42;;;;;;;4.80;1.35;;;;;;;;;;5069378;28;20403;-71
2023/05/20 12:58:09;;;;;;;2.85;1.30;;;;;;;;;;5069555;28;20052;-71
2023/05/20 13:00:37;;;;;;;3.13;1.60;;;;;;;;;;5064800;28;20083;-71
2023/05/20 13:03:04;;;;;;;2.97;1.23;;;;;;;;;;5068951;28;20052;-71
2023/05/20 13:05:32;;;;;;;2.45;1.35;;;;;;;;;;5066566;28;20415;-71
2023/05/20 13:08:00;;;;;;;3.10;1.50;;;;;;;;;;5067913;28;20078;-71
2023/05/20 13:10:27;;;;;;;3.95;1.30;;;;;;;;;;5067347;28;20514;-71
2023/05/20 13:12:55;;;;;;;4.53;1.90;;;;;;;;;;5066086;28;20053;-71
2023/05/20 13:15:23;;;;;;;2.85;1.52;;;;;;;;;;5065942;28;20798;-71
2023/05/20 13:17:50;;;;;;;4.90;1.50;;;;;;;;;;5065888;28;20407;-71
2023/05/20 13:20:17;;;;;;;3.92;1.40;;;;;;;;;;5068568;28;20040;-71
2023/05/20 13:22:46;;;;;;;3.58;1.60;;;;;;;;;;5065250;28;20092;-71
2023/05/20 13:25:13;;;;;;;3.83;1.45;;;;;;;;;;5070228;28;20098;-71
2023/05/20 13:27:41;;;;;;;6.13;1.60;;;;;;;;;;5071457;28;20059;-71
2023/05/20 13:30:09;;;;;;;2.58;1.58;;;;;;;;;;5067212;28;20139;-71
2023/05/20 13:32:36;;;;;;;3.17;1.70;;;;;;;;;;5064352;28;20060;-71
2023/05/20 13:35:03;;;;;;;2.92;1.63;;;;;;;;;;5069790;28;20080;-72
2023/05/20 13:37:30;;;;;;;4.85;1.75;;;;;;;;;;5068583;28;20045;-71
2023/05/20 13:39:59;;;;;;;2.95;1.55;;;;;;;;;;5069652;28;20056;-72
2023/05/20 13:42:26;;;;;;;3.63;1.88;;;;;;;;;;5068033;28;20056;-71
2023/05/20 13:44:54;;;;;;;5.57;2.38;;;;;;;;;;5068106;28;20078;-72
2023/05/20 13:47:21;;;;;;;3.45;2.28;;;;;;;;;;5067659;28;20056;-71
2023/05/20 13:49:48;;;;;;;3.00;1.60;;;;;;;;;;5068980;28;20049;-71
2023/05/20 13:52:15;;;;;;;2.70;1.83;;;;;;;;;;5067685;28;20095;-72
2023/05/20 13:54:45;;;;;;;3.80;1.77;;;;;;;;;;5068800;28;20098;-71
2023/05/20 13:57:14;;;;;;;2.97;1.95;;;;;;;;;;5064699;28;20063;-72
2023/05/20 13:59:41;;;;;;;4.35;2.42;;;;;;;;;;5067391;28;20052;-72
2023/05/20 14:02:08;;;;;;;2.13;1.55;;;;;;;;;;5063736;28;20055;-71
2023/05/20 14:04:38;;;;;;;5.65;2.00;;;;;;;;;;5068605;28;20079;-71
2023/05/20 14:07:05;;;;;;;2.38;1.45;;;;;;;;;;5068058;28;20136;-71
2023/05/20 14:09:32;;;;;;;2.70;1.48;;;;;;;;;;5065229;28;20099;-72
2023/05/20 14:12:00;;;;;;;3.70;1.67;;;;;;;;;;5068087;28;20059;-72
2023/05/20 14:14:28;;;;;;;4.47;1.70;;;;;;;;;;5061430;28;20055;-72
2023/05/20 14:16:56;;;;;;;3.60;1.60;;;;;;;;;;5065512;28;20045;-72
2023/05/20 14:19:23;;;;;;;2.78;1.80;;;;;;;;;;5065212;28;20041;-72
2023/05/20 14:21:50;;;;;;;6.00;1.70;;;;;;;;;;5065326;28;20113;-72
2023/05/20 14:24:17;;;;;;;3.92;1.70;;;;;;;;;;5068734;28;20044;-71
2023/05/20 14:26:45;;;;;;;4.68;1.95;;;;;;;;;;5067648;28;20052;-74
2023/05/20 14:29:13;;;;;;;2.83;1.75;;;;;;;;;;5065993;28;20048;-68
2023/05/20 14:31:42;;;;;;;6.78;2.00;;;;;;;;;;5064258;28;20102;-68
2023/05/20 14:34:09;;;;;;;3.00;1.77;;;;;;;;;;5069894;28;20040;-68
2023/05/20 14:36:36;;;;;;;1.95;1.70;;;;;;;;;;5065238;28;20052;-68
2023/05/20 14:39:04;;;;;;;3.65;1.77;;;;;;;;;;5069946;28;20040;-68
2023/05/20 14:41:31;;;;;;;3.42;2.20;;;;;;;;;;5072950;28;20056;-68
2023/05/20 14:43:58;;;;;;;2.70;1.77;;;;;;;;;;5068951;28;20056;-68
2023/05/20 14:46:26;;;;;;;3.25;1.67;;;;;;;;;;5071925;28;20040;-68
2023/05/20 14:48:54;;;;;;;2.05;1.70;;;;;;;;;;5070800;28;20048;-68